Time,TemperatureF,DewpointF,PressureIn,WindDirection,WindDirectionDegrees,WindSpeedMPH,WindSpeedGustMPH,Humidity,HourlyPrecipIn,Conditions,Clouds,dailyrainin,SoftwareType,DateUTC
2013-01-17 00:13:00,50.9,49.0,29.98,East,92,0.0,1.3,93,0.01,,-RA,0.00,VWS V14.01,2013-01-17 05:13:00,
2013-01-17 00:28:00,50.6,48.7,29.98,East,92,0.0,1.3,93,0.01,,-RA,0.00,VWS V14.01,2013-01-17 05:28:00,
2013-01-17 00:43:00,50.8,48.8,29.99,East,92,0.0,0.0,93,0.01,,-RA,0.00,VWS V14.01,2013-01-17 05:43:00,
2013-01-17 00:58:00,50.9,49.0,30.00,East,92,0.0,0.0,93,0.01,,-RA,0.00,VWS V14.01,2013-01-17 05:58:00,
2013-01-17 01:13:00,51.0,49.0,29.99,East,92,0.0,1.3,93,0.00,,OVC060,0.00,VWS V14.01,2013-01-17 06:13:00,
2013-01-17 01:28:00,51.1,49.2,29.99,East,92,0.0,1.3,93,0.01,,OVC015,0.01,VWS V14.01,2013-01-17 06:28:00,
2013-01-17 01:43:00,51.1,49.2,29.99,East,92,0.0,1.3,93,0.01,,OVC015,0.01,VWS V14.01,2013-01-17 06:43:00,
2013-01-17 01:58:00,51.2,49.5,29.99,East,92,0.0,1.3,94,0.01,,OVC015,0.01,VWS V14.01,2013-01-17 06:58:00,
2013-01-17 02:13:00,51.2,49.5,29.98,East,92,0.0,1.3,94,0.01,,-RA,0.01,VWS V14.01,2013-01-17 07:13:00,
2013-01-17 02:28:00,51.2,49.5,29.98,East,92,0.0,1.3,94,0.01,,-RA,0.01,VWS V14.01,2013-01-17 07:28:00,
2013-01-17 02:43:00,51.2,49.5,29.98,East,92,0.0,0.0,94,0.00,,-RA,0.01,VWS V14.01,2013-01-17 07:43:00,
2013-01-17 02:58:00,51.3,49.6,29.98,East,92,0.0,0.0,94,0.01,,-RA,0.02,VWS V14.01,2013-01-17 07:58:00,
2013-01-17 03:13:00,51.4,49.7,29.97,East,92,0.0,0.0,94,0.01,,-RA,0.02,VWS V14.01,2013-01-17 08:13:00,
2013-01-17 03:28:00,51.3,49.6,29.97,East,92,0.0,0.0,94,0.01,,-RA,0.02,VWS V14.01,2013-01-17 08:28:00,
2013-01-17 03:43:00,51.4,49.7,29.97,East,92,0.0,0.0,94,0.01,,-RA,0.02,VWS V14.01,2013-01-17 08:43:00,
2013-01-17 03:58:00,51.4,49.7,29.96,East,92,0.0,0.0,94,0.01,,-RA,0.02,VWS V14.01,2013-01-17 08:58:00,
2013-01-17 04:13:00,51.4,49.7,29.96,East,92,0.0,0.0,94,0.00,,-RA,0.02,VWS V14.01,2013-01-17 09:13:00,
2013-01-17 04:28:00,51.4,49.7,29.95,East,92,0.0,0.0,94,0.01,,-RA,0.03,VWS V14.01,2013-01-17 09:28:00,
2013-01-17 04:43:00,51.3,49.6,29.95,East,92,0.0,0.0,94,0.01,,-RA,0.03,VWS V14.01,2013-01-17 09:43:00,
2013-01-17 04:58:00,51.4,49.7,29.95,East,92,0.0,1.3,94,0.01,,-RA,0.03,VWS V14.01,2013-01-17 09:58:00,
2013-01-17 05:13:00,51.3,49.6,29.95,East,92,0.0,1.3,94,0.01,,RA,0.03,VWS V14.01,2013-01-17 10:13:00,
2013-01-17 05:28:00,51.4,49.7,29.95,East,92,0.0,1.3,94,0.02,,RA,0.04,VWS V14.01,2013-01-17 10:28:00,
2013-01-17 05:43:00,51.3,49.6,29.95,East,92,0.0,1.3,94,0.01,,-RA,0.04,VWS V14.01,2013-01-17 10:43:00,
2013-01-17 05:58:00,51.3,49.6,29.94,East,92,0.0,2.6,94,0.01,,-RA,0.04,VWS V14.01,2013-01-17 10:58:00,
2013-01-17 06:13:00,51.4,49.7,29.95,East,92,0.0,1.3,94,0.02,, +RA,0.06,VWS V14.01,2013-01-17 11:13:00,
2013-01-17 06:28:00,51.2,49.5,29.94,East,92,0.0,2.6,94,0.02,, +RA,0.06,VWS V14.01,2013-01-17 11:28:00,
2013-01-17 06:43:00,51.3,49.6,29.94,East,92,0.0,1.3,94,0.01,, +RA,0.06,VWS V14.01,2013-01-17 11:43:00,
2013-01-17 06:58:00,51.4,49.7,29.95,East,92,0.0,2.6,94,0.02,, +RA,0.07,VWS V14.01,2013-01-17 11:58:00,
2013-01-17 07:13:00,51.4,49.7,29.95,East,92,0.0,2.6,94,0.02,,-RA,0.07,VWS V14.01,2013-01-17 12:13:00,
2013-01-17 07:28:00,51.4,49.7,29.94,East,92,0.0,1.3,94,0.02,,-RA,0.08,VWS V14.01,2013-01-17 12:28:00,
2013-01-17 07:43:00,51.5,49.8,29.95,East,92,0.0,2.6,94,0.02,,-RA,0.08,VWS V14.01,2013-01-17 12:43:00,
2013-01-17 08:13:00,51.7,50.0,29.94,East,92,0.0,2.6,94,0.02,,-RA,0.09,VWS V14.01,2013-01-17 13:13:00,
2013-01-17 08:28:00,52.0,50.3,29.95,NW,309,1.3,5.2,94,0.02,,-RA,0.09,VWS V14.01,2013-01-17 13:28:00,
2013-01-17 08:43:00,52.2,50.5,29.95,NNW,346,0.0,3.9,94,0.02,,-RA,0.10,VWS V14.01,2013-01-17 13:43:00,
2013-01-17 08:58:00,52.5,50.8,29.94,ENE,58,3.9,7.8,94,0.02,,RA,0.10,VWS V14.01,2013-01-17 13:58:00,
2013-01-17 09:13:00,52.5,50.8,29.95,SE,131,1.3,9.1,94,0.02,,RA,0.11,VWS V14.01,2013-01-17 14:13:00,
2013-01-17 09:28:00,52.5,50.8,29.94,East,82,3.9,7.8,94,0.02,,RA,0.11,VWS V14.01,2013-01-17 14:28:00,
2013-01-17 09:43:00,52.6,50.9,29.95,ESE,117,0.0,6.5,94,0.03,,RA,0.12,VWS V14.01,2013-01-17 14:43:00,
2013-01-17 09:58:00,52.6,50.9,29.94,ENE,77,0.0,7.8,94,0.02,,RA,0.12,VWS V14.01,2013-01-17 14:58:00,
2013-01-17 10:13:00,52.6,50.9,29.93,ENE,78,1.3,14.3,94,0.03,,-RA,0.13,VWS V14.01,2013-01-17 15:13:00,
2013-01-17 10:28:00,52.3,50.3,29.93,ESE,104,3.9,7.8,93,0.03,,-RA,0.14,VWS V14.01,2013-01-17 15:28:00,
2013-01-17 10:43:00,52.1,50.4,29.91,ENE,77,3.9,18.2,94,0.06,,RA,0.17,VWS V14.01,2013-01-17 15:43:00,
2013-01-17 10:58:00,51.8,49.8,29.90,SE,132,3.9,13.0,93,0.07,,RA,0.19,VWS V14.01,2013-01-17 15:58:00,
2013-01-17 11:13:00,51.7,49.8,29.90,ENE,71,3.9,10.4,93,0.09,,-RA,0.21,VWS V14.01,2013-01-17 16:13:00,
2013-01-17 11:28:00,51.6,49.7,29.89,East,90,3.9,11.7,93,0.10,,-RA,0.23,VWS V14.01,2013-01-17 16:28:00,
2013-01-17 11:43:00,51.1,49.2,29.88,East,92,7.8,22.1,93,0.11,,-RA,0.25,VWS V14.01,2013-01-17 16:43:00,
2013-01-17 11:58:00,51.0,49.0,29.86,NW,311,2.6,11.7,93,0.11,,-RA,0.28,VWS V14.01,2013-01-17 16:58:00,
2013-01-17 12:13:00,50.7,48.8,29.85,ENE,66,5.2,18.2,93,0.12,,-RA,0.31,VWS V14.01,2013-01-17 17:13:00,
2013-01-17 12:28:00,50.6,48.7,29.84,ENE,66,6.5,11.7,93,0.12,, +RA,0.33,VWS V14.01,2013-01-17 17:28:00,
2013-01-17 12:43:00,50.3,48.4,29.83,NE,38,3.9,15.6,93,0.13,, +RA,0.36,VWS V14.01,2013-01-17 17:43:00,
2013-01-17 12:58:00,50.2,48.3,29.82,ENE,65,9.1,14.3,93,0.14,,-RA,0.40,VWS V14.01,2013-01-17 17:58:00,
2013-01-17 13:13:00,49.9,48.0,29.80,ENE,78,3.9,13.0,93,0.15,,-RA,0.43,VWS V14.01,2013-01-17 18:13:00,
2013-01-17 13:28:00,49.8,47.9,29.78,SE,144,0.0,18.2,93,0.15,, +RA,0.46,VWS V14.01,2013-01-17 18:28:00,
2013-01-17 13:43:00,49.5,47.6,29.78,East,96,1.3,14.3,93,0.15,, +RA,0.48,VWS V14.01,2013-01-17 18:43:00,
2013-01-17 13:58:00,49.1,46.9,29.79,North,5,10.4,19.5,92,0.15,, +RA,0.52,VWS V14.01,2013-01-17 18:58:00,
2013-01-17 14:13:00,48.9,46.7,29.80,NE,52,14.3,20.8,92,0.15,,-RA,0.55,VWS V14.01,2013-01-17 19:13:00,
2013-01-17 14:29:00,48.5,46.3,29.80,East,79,0.0,22.1,92,0.15,,-RA,0.58,VWS V14.01,2013-01-17 19:29:00,
2013-01-17 14:43:00,48.6,46.4,29.85,NNE,30,5.2,11.7,92,0.14,,-RA,0.61,VWS V14.01,2013-01-17 19:43:00,
2013-01-17 14:58:00,48.1,45.9,29.84,East,86,3.9,13.0,92,0.15,, +RA,0.64,VWS V14.01,2013-01-17 19:58:00,
2013-01-17 15:13:00,47.8,45.6,29.82,East,82,11.7,13.0,92,0.15,, +RA,0.67,VWS V14.01,2013-01-17 20:13:00,
2013-01-17 15:28:00,47.2,45.0,29.81,ENE,65,11.7,15.6,92,0.15,, +RA,0.70,VWS V14.01,2013-01-17 20:28:00,
2013-01-17 15:43:00,46.8,44.6,29.82,ESE,115,10.4,22.1,92,0.15,, +RA,0.74,VWS V14.01,2013-01-17 20:43:00,
2013-01-17 15:58:00,46.5,44.3,29.81,East,82,6.5,23.4,92,0.16,, +RA,0.77,VWS V14.01,2013-01-17 20:58:00,
2013-01-17 16:13:00,46.3,44.1,29.80,SE,127,7.8,23.4,92,0.16,, +RA,0.80,VWS V14.01,2013-01-17 21:13:00,
2013-01-17 16:28:00,46.1,43.9,29.81,North,5,7.8,19.5,92,0.16,, +RA,0.84,VWS V14.01,2013-01-17 21:28:00,
2013-01-17 16:43:00,45.7,43.2,29.81,NNW,345,1.3,15.6,91,0.16,, +RA,0.87,VWS V14.01,2013-01-17 21:43:00,
2013-01-17 16:58:00,45.2,42.7,29.83,East,80,10.4,20.8,91,0.16,,-RA,0.90,VWS V14.01,2013-01-17 21:58:00,
2013-01-17 17:13:00,45.1,42.6,29.86,ENE,67,11.7,14.3,91,0.16,,-RA,0.94,VWS V14.01,2013-01-17 22:13:00,
2013-01-17 17:28:00,45.0,42.5,29.88,NE,34,3.9,14.3,91,0.16,,-RA,0.97,VWS V14.01,2013-01-17 22:28:00,
2013-01-17 17:43:00,44.8,42.3,29.89,ENE,74,5.2,16.9,91,0.15,,-RA,0.99,VWS V14.01,2013-01-17 22:43:00,
2013-01-17 17:58:00,44.7,42.2,29.89,NE,40,3.9,16.9,91,0.15,,RA,1.02,VWS V14.01,2013-01-17 22:58:00,
2013-01-17 18:13:00,44.2,41.7,29.90,ENE,61,13.0,29.9,91,0.15,, +RA,1.06,VWS V14.01,2013-01-17 23:13:00,
2013-01-17 18:28:00,43.8,41.1,29.94,East,80,10.4,20.8,90,0.15,,RA,1.09,VWS V14.01,2013-01-17 23:28:00,
2013-01-17 18:43:00,43.3,40.6,29.97,ENE,71,9.1,24.7,90,0.14,,RA,1.11,VWS V14.01,2013-01-17 23:43:00,
2013-01-17 18:58:00,42.9,40.2,29.98,East,98,7.8,19.5,90,0.15,,RA,1.14,VWS V14.01,2013-01-17 23:58:00,
2013-01-17 19:13:00,42.6,40.2,30.01,ENE,61,3.9,16.9,91,0.14,,RA,1.17,VWS V14.01,2013-01-18 00:13:00,
2013-01-17 19:28:00,42.3,39.9,30.04,East,87,3.9,6.5,91,0.13,,RA,1.19,VWS V14.01,2013-01-18 00:28:00,
2013-01-17 19:43:00,42.0,39.8,30.06,ENE,61,0.0,11.7,92,0.12,,RA,1.21,VWS V14.01,2013-01-18 00:43:00,
2013-01-17 19:58:00,41.7,39.3,30.07,ESE,106,0.0,5.2,91,0.12,,RA,1.23,VWS V14.01,2013-01-18 00:58:00,
2013-01-17 20:13:00,41.6,39.5,30.09,ESE,106,1.3,2.6,92,0.11,,RA,1.25,VWS V14.01,2013-01-18 01:13:00,
2013-01-17 20:28:00,41.5,39.3,30.10,East,101,7.8,9.1,92,0.11,,RA,1.28,VWS V14.01,2013-01-18 01:28:00,
2013-01-17 20:43:00,40.9,38.8,30.12,ESE,108,2.6,9.1,92,0.10,,RA,1.29,VWS V14.01,2013-01-18 01:43:00,
2013-01-17 20:58:00,40.8,38.7,30.13,ENE,72,2.6,5.2,92,0.10,,RA,1.31,VWS V14.01,2013-01-18 01:58:00,
2013-01-17 21:13:00,40.3,38.2,30.14,East,88,1.3,10.4,92,0.10,,-RA,1.33,VWS V14.01,2013-01-18 02:13:00,
2013-01-17 21:28:00,40.1,38.0,30.15,ENE,57,1.3,6.5,92,0.10,,-RA,1.35,VWS V14.01,2013-01-18 02:28:00,
2013-01-17 21:43:00,39.9,37.8,30.14,ENE,76,3.9,9.1,92,0.09,,-RA,1.36,VWS V14.01,2013-01-18 02:43:00,
2013-01-17 21:58:00,39.6,37.5,30.15,East,90,3.9,9.1,92,0.10,,-RA,1.39,VWS V14.01,2013-01-18 02:58:00,
2013-01-17 22:13:00,39.6,37.5,30.18,ENE,57,0.0,10.4,92,0.10,,BKN033,1.41,VWS V14.01,2013-01-18 03:13:00,
2013-01-17 22:28:00,39.5,37.4,30.18,East,85,3.9,5.2,92,0.10,,BKN009,1.43,VWS V14.01,2013-01-18 03:28:00,
2013-01-17 22:43:00,39.3,37.2,30.20,NNE,19,0.0,6.5,92,0.09,,OVC026,1.44,VWS V14.01,2013-01-18 03:43:00,
2013-01-17 22:58:00,38.9,36.8,30.20,NNE,19,0.0,2.6,92,0.10,,OVC024,1.46,VWS V14.01,2013-01-18 03:58:00,
2013-01-17 23:13:00,38.4,36.3,30.21,East,84,0.0,3.9,92,0.10,,OVC024,1.49,VWS V14.01,2013-01-18 04:13:00,
2013-01-17 23:28:00,37.9,35.8,30.21,East,84,0.0,3.9,92,0.09,,OVC024,1.50,VWS V14.01,2013-01-18 04:28:00,
2013-01-17 23:43:00,37.2,35.1,30.22,East,84,0.0,1.3,92,0.09,,OVC024,1.52,VWS V14.01,2013-01-18 04:43:00,
2013-01-17 23:58:00,37.0,34.9,30.23,NE,55,0.0,3.9,92,0.09,,OVC024,1.53,VWS V14.01,2013-01-18 04:58:00,